TAF KSRQ
AMD KSRQ 090919Z 0909/1006 VRB03KT 3SM BR SCT004 BKN210 FM091000 VRB03KT 1/4SM FG BKN001 BKN010 FM091300 VRB03KT 1SM BR BKN003 BKN010 FM091500 12005KT P6SM BKN008 BKN015 FM091900 22007KT P6SM FEW025 SCT080=
METAR KSRQ
WC KSRQ
WS KSRQ
WV KSRQ